Union Furnace, Ohio
Current Conditions -  °F | °C
As of 11:15 PM on Monday 22 Dec 2014 (Local Time) from KUNI Reporting Station
Broken Clouds Broken Clouds  
Wind Chill: 43°   Ceiling: 12000
Heat Index: 47°   Visibility: 10mi
Dew Point: 39°   Wind: 7mph
Humidity: 74%   Direction: 130°SE
Pressure: 29.84"   Gusts: NA
Location:  39.46°N, 82.36°W
Report Text: KUNI 230415Z AUTO 13006KT 10SM SCT070 SCT090 BKN120 08/04 A2984 RMK AO2 T00810038
Loading
Personal Weather Stations






























Interactive Weather Map New forecast layout! Learn more

10-Day Weather Forecast

Advertisements
Track Severe Weather on mobile